createdAt,value
2019-02-02T00:01:05.211Z,1.06
2019-02-02T00:03:05.171Z,1.06
2019-02-02T00:05:05.173Z,1.06
2019-02-02T00:07:06.980Z,1.13
2019-02-02T00:08:22.814Z,1.13
2019-02-02T00:09:06.790Z,1.13
2019-02-02T00:11:07.497Z,1.13
2019-02-02T00:13:07.027Z,1.06
2019-02-02T00:15:06.065Z,1
2019-02-02T00:17:05.153Z,0.94
2019-02-02T00:19:05.185Z,0.94
2019-02-02T00:21:05.296Z,0.94
2019-02-02T00:23:05.170Z,1
2019-02-02T00:23:22.121Z,1
2019-02-02T00:25:05.165Z,0.94
2019-02-02T00:27:05.290Z,1
2019-02-02T00:29:05.176Z,1
2019-02-02T00:31:05.183Z,1.06
2019-02-02T00:33:05.166Z,1.06
2019-02-02T00:35:05.158Z,1.06
2019-02-02T00:37:05.159Z,1.13
2019-02-02T00:38:22.106Z,1.13
2019-02-02T00:39:05.144Z,1.06
2019-02-02T00:41:05.192Z,1.06
2019-02-02T00:43:05.169Z,1.13
2019-02-02T00:45:05.192Z,1.13
2019-02-02T00:47:05.142Z,1.06
2019-02-02T00:49:05.187Z,1.06
2019-02-02T00:51:05.206Z,1.06
2019-02-02T00:53:05.125Z,1.06
2019-02-02T00:53:22.144Z,1
2019-02-02T00:55:05.178Z,1
2019-02-02T00:57:05.192Z,1
2019-02-02T00:59:05.177Z,1.06
2019-02-02T01:01:05.181Z,1.13
2019-02-02T01:03:06.080Z,1.13
2019-02-02T01:05:05.185Z,1.06
2019-02-02T01:07:05.161Z,1.06
2019-02-02T01:08:22.126Z,1.06
2019-02-02T01:09:05.180Z,1.06
2019-02-02T01:11:05.158Z,1.06
2019-02-02T01:13:05.178Z,1.13
2019-02-02T01:15:05.191Z,1.19
2019-02-02T01:17:05.095Z,1.13
2019-02-02T01:19:05.180Z,1.13
2019-02-02T01:21:05.190Z,1.06
2019-02-02T01:23:05.274Z,1
2019-02-02T01:23:22.102Z,1
2019-02-02T01:25:05.157Z,1.06
2019-02-02T01:27:05.135Z,1.06
2019-02-02T01:29:05.172Z,1.06
2019-02-02T01:31:05.193Z,1.13
2019-02-02T01:33:05.208Z,1.13
2019-02-02T01:35:05.127Z,1.13
2019-02-02T01:37:05.164Z,1.13
2019-02-02T01:38:22.079Z,1.13
2019-02-02T01:39:05.178Z,1.06
2019-02-02T01:41:05.156Z,1.13
2019-02-02T01:43:05.191Z,1.06
2019-02-02T01:45:05.197Z,1.06
2019-02-02T01:47:06.162Z,1
2019-02-02T01:49:05.175Z,1.06
2019-02-02T01:51:05.193Z,1
2019-02-02T01:53:05.256Z,1
2019-02-02T01:53:22.112Z,1
2019-02-02T01:55:05.179Z,1
2019-02-02T01:57:05.212Z,1
2019-02-02T01:59:06.057Z,0.94
2019-02-02T02:01:05.185Z,0.94
2019-02-02T02:03:05.160Z,0.94
2019-02-02T02:05:05.130Z,1
2019-02-02T02:07:05.195Z,1.06
2019-02-02T02:08:22.139Z,1.06
2019-02-02T02:09:05.179Z,1.06
2019-02-02T02:11:05.187Z,1.13
2019-02-02T02:13:05.194Z,1.13
2019-02-02T02:15:06.947Z,1.13
2019-02-02T02:17:05.118Z,1.19
2019-02-02T02:19:05.159Z,1.19
2019-02-02T02:21:05.196Z,1.19
2019-02-02T02:23:05.141Z,1.25
2019-02-02T02:23:22.097Z,1.25
2019-02-02T02:25:05.168Z,1.25
2019-02-02T02:27:06.044Z,1.31
2019-02-02T02:29:05.323Z,1.31
2019-02-02T02:31:05.462Z,1.31
2019-02-02T02:33:06.287Z,1.38
2019-02-02T02:35:05.197Z,1.38
2019-02-02T02:37:05.175Z,1.38
2019-02-02T02:38:22.222Z,1.38
2019-02-02T02:39:05.187Z,1.38
2019-02-02T02:41:05.147Z,1.38
2019-02-02T02:43:06.083Z,1.38
2019-02-02T02:45:05.174Z,1.31
2019-02-02T02:47:06.073Z,1.31
2019-02-02T02:49:05.210Z,1.31
2019-02-02T02:51:05.177Z,1.25
2019-02-02T02:53:05.191Z,1.25
2019-02-02T02:53:22.057Z,1.31
2019-02-02T02:55:07.498Z,1.31
2019-02-02T02:57:07.595Z,1.31
2019-02-02T02:59:05.142Z,1.31
2019-02-02T03:01:05.195Z,1.31
2019-02-02T03:03:05.182Z,1.31
2019-02-02T03:05:05.186Z,1.31
2019-02-02T03:07:05.170Z,1.38
2019-02-02T03:08:22.114Z,1.38
2019-02-02T03:09:05.151Z,1.38
2019-02-02T03:11:05.220Z,1.31
2019-02-02T03:13:05.198Z,1.31
2019-02-02T03:15:05.170Z,1.31
2019-02-02T03:17:05.185Z,1.31
2019-02-02T03:19:05.253Z,1.31
2019-02-02T03:21:05.162Z,1.31
2019-02-02T03:23:05.184Z,1.31
2019-02-02T03:23:22.105Z,1.31
2019-02-02T03:25:05.254Z,1.31
2019-02-02T03:27:05.177Z,1.31
2019-02-02T03:29:05.325Z,1.25
2019-02-02T03:31:06.143Z,1.31
2019-02-02T03:33:05.178Z,1.31
2019-02-02T03:35:05.194Z,1.31
2019-02-02T03:37:05.157Z,1.31
2019-02-02T03:38:22.179Z,1.25
2019-02-02T03:39:05.193Z,1.25
2019-02-02T03:41:05.185Z,1.25
2019-02-02T03:43:05.185Z,1.31
2019-02-02T03:45:05.218Z,1.25
2019-02-02T03:47:05.247Z,1.25
2019-02-02T03:49:05.160Z,1.25
2019-02-02T03:51:05.177Z,1.19
2019-02-02T03:53:05.208Z,1.19
2019-02-02T03:53:22.072Z,1.19
2019-02-02T03:55:05.207Z,1.25
2019-02-02T03:57:05.206Z,1.19
2019-02-02T03:59:06.947Z,1.19
2019-02-02T04:01:05.184Z,1.25
2019-02-02T04:03:05.165Z,1.25
2019-02-02T04:05:05.202Z,1.25
2019-02-02T04:07:05.978Z,1.31
2019-02-02T04:08:22.153Z,1.25
2019-02-02T04:09:05.185Z,1.31
2019-02-02T04:11:05.162Z,1.25
2019-02-02T04:13:05.399Z,1.31
2019-02-02T04:15:05.434Z,1.25
2019-02-02T04:17:05.189Z,1.19
2019-02-02T04:19:05.193Z,1.19
2019-02-02T04:21:05.189Z,1.31
2019-02-02T04:23:05.178Z,1.25
2019-02-02T04:23:22.118Z,1.25
2019-02-02T04:25:05.193Z,1.25
2019-02-02T04:27:05.147Z,1.25
2019-02-02T04:29:05.223Z,1.25
2019-02-02T04:31:05.146Z,1.25
2019-02-02T04:33:05.185Z,1.19
2019-02-02T04:35:05.184Z,1.25
2019-02-02T04:37:05.187Z,1.25
2019-02-02T04:38:22.072Z,1.25
2019-02-02T04:39:05.179Z,1.25
2019-02-02T04:41:06.059Z,1.31
2019-02-02T04:43:05.173Z,1.25
2019-02-02T04:45:06.083Z,1.25
2019-02-02T04:47:05.197Z,1.25
2019-02-02T04:49:05.173Z,1.25
2019-02-02T04:51:05.257Z,1.25
2019-02-02T04:53:05.119Z,1.25
2019-02-02T04:53:22.068Z,1.25
2019-02-02T04:55:05.181Z,1.31
2019-02-02T04:57:05.186Z,1.38
2019-02-02T04:59:05.195Z,1.38
2019-02-02T05:01:05.099Z,1.38
2019-02-02T05:03:05.162Z,1.38
2019-02-02T05:05:05.159Z,1.38
2019-02-02T05:07:05.198Z,1.38
2019-02-02T05:08:22.133Z,1.38
2019-02-02T05:09:05.162Z,1.31
2019-02-02T05:11:05.205Z,1.38
2019-02-02T05:13:05.201Z,1.38
2019-02-02T05:15:05.187Z,1.31
2019-02-02T05:17:05.135Z,1.31
2019-02-02T05:19:05.196Z,1.31
2019-02-02T05:21:05.145Z,1.31
2019-02-02T05:23:05.183Z,1.31
2019-02-02T05:23:22.107Z,1.25
2019-02-02T05:25:05.049Z,1.31
2019-02-02T05:27:05.172Z,1.25
2019-02-02T05:29:05.181Z,1.25
2019-02-02T05:31:05.127Z,1.25
2019-02-02T05:33:05.240Z,1.31
2019-02-02T05:35:05.176Z,1.25
2019-02-02T05:37:05.196Z,1.19
2019-02-02T05:38:22.033Z,1.19
2019-02-02T05:39:05.129Z,1.25
2019-02-02T05:41:06.073Z,1.19
2019-02-02T05:43:05.174Z,1.19
2019-02-02T05:45:05.079Z,1.19
2019-02-02T05:47:05.166Z,1.19
2019-02-02T05:49:05.110Z,1.25
2019-02-02T05:51:05.189Z,1.19
2019-02-02T05:53:05.169Z,1.25
2019-02-02T05:53:22.144Z,1.19
2019-02-02T05:55:05.279Z,1.25
2019-02-02T05:57:05.211Z,1.25
2019-02-02T05:59:05.189Z,1.25
2019-02-02T06:01:05.125Z,1.25
2019-02-02T06:03:05.394Z,1.25
2019-02-02T06:05:05.290Z,1.25
2019-02-02T06:07:05.194Z,1.31
2019-02-02T06:08:22.189Z,1.31
2019-02-02T06:09:05.186Z,1.31
2019-02-02T06:11:06.977Z,1.31
2019-02-02T06:13:05.172Z,1.31
2019-02-02T06:15:05.170Z,1.31
2019-02-02T06:17:05.180Z,1.38
2019-02-02T06:19:05.183Z,1.31
2019-02-02T06:21:05.216Z,1.38
2019-02-02T06:23:05.299Z,1.31
2019-02-02T06:23:22.112Z,1.31
2019-02-02T06:25:05.151Z,1.31
2019-02-02T06:27:05.250Z,1.31
2019-02-02T06:29:05.161Z,1.25
2019-02-02T06:31:05.144Z,1.25
2019-02-02T06:33:05.178Z,1.25
2019-02-02T06:35:05.193Z,1.25
2019-02-02T06:37:05.183Z,1.19
2019-02-02T06:38:22.179Z,1.25
2019-02-02T06:39:05.202Z,1.25
2019-02-02T06:41:05.120Z,1.31
2019-02-02T06:43:05.189Z,1.25
2019-02-02T06:45:05.213Z,1.25
2019-02-02T06:47:05.181Z,1.25
2019-02-02T06:49:05.186Z,1.19
2019-02-02T06:51:05.227Z,1.25
2019-02-02T06:53:05.179Z,1.19
2019-02-02T06:53:22.099Z,1.19
2019-02-02T06:55:05.182Z,1.25
2019-02-02T06:57:05.174Z,1.25
2019-02-02T06:59:05.235Z,1.25
2019-02-02T07:01:05.194Z,1.25
2019-02-02T07:03:05.188Z,1.19
2019-02-02T07:05:05.155Z,1.25
2019-02-02T07:07:05.173Z,1.25
2019-02-02T07:08:22.119Z,1.25
2019-02-02T07:09:05.164Z,1.19
2019-02-02T07:11:05.181Z,1.19
2019-02-02T07:13:05.181Z,1.13
2019-02-02T07:15:05.161Z,1.25
2019-02-02T07:17:05.198Z,1.13
2019-02-02T07:19:05.166Z,1.19
2019-02-02T07:21:05.188Z,1.13
2019-02-02T07:23:05.155Z,1.13
2019-02-02T07:23:22.098Z,1.19
2019-02-02T07:25:06.163Z,1.13
2019-02-02T07:27:05.174Z,1.13
2019-02-02T07:29:05.181Z,1.19
2019-02-02T07:31:05.145Z,1.13
2019-02-02T07:33:05.172Z,1.13
2019-02-02T07:35:05.052Z,1.13
2019-02-02T07:37:05.183Z,1.19
2019-02-02T07:38:22.179Z,1.19
2019-02-02T07:39:06.025Z,1.13
2019-02-02T07:41:05.263Z,1.19
2019-02-02T07:43:05.132Z,1.19
2019-02-02T07:45:05.183Z,1.19
2019-02-02T07:47:05.200Z,1.13
2019-02-02T07:49:05.165Z,1.13
2019-02-02T07:51:05.149Z,1.06
2019-02-02T07:53:05.184Z,1.06
2019-02-02T07:53:22.125Z,1.06
2019-02-02T07:55:05.145Z,1.06
2019-02-02T07:57:06.044Z,1.06
2019-02-02T07:59:05.191Z,1.06
2019-02-02T08:01:05.174Z,1
2019-02-02T08:03:05.295Z,1
2019-02-02T08:05:05.213Z,1.06
2019-02-02T08:07:05.147Z,1
2019-02-02T08:08:22.212Z,1.06
2019-02-02T08:09:05.194Z,1.06
2019-02-02T08:11:05.148Z,1
2019-02-02T08:13:06.082Z,1
2019-02-02T08:15:05.189Z,1
2019-02-02T08:17:05.211Z,1
2019-02-02T08:19:05.195Z,1
2019-02-02T08:21:05.215Z,1.06
2019-02-02T08:23:05.283Z,1.06
2019-02-02T08:23:22.132Z,1.06
2019-02-02T08:25:05.188Z,1.06
2019-02-02T08:27:05.233Z,0.94
2019-02-02T08:29:05.216Z,1
2019-02-02T08:31:05.186Z,1
2019-02-02T08:33:05.200Z,1
2019-02-02T08:35:05.197Z,1
2019-02-02T08:37:05.198Z,1
2019-02-02T08:38:22.106Z,1
2019-02-02T08:39:05.198Z,1
2019-02-02T08:41:05.154Z,1
2019-02-02T08:43:05.153Z,1
2019-02-02T08:45:05.203Z,1.06
2019-02-02T08:47:05.205Z,1.06
2019-02-02T08:49:05.144Z,1.06
2019-02-02T08:51:05.196Z,1.13
2019-02-02T08:53:05.216Z,1.13
2019-02-02T08:53:22.154Z,1.19
2019-02-02T08:55:05.210Z,1.13
2019-02-02T08:57:05.196Z,1.13
2019-02-02T08:59:05.293Z,1.13
2019-02-02T09:01:05.192Z,1.13
2019-02-02T09:03:05.199Z,1.13
2019-02-02T09:05:05.161Z,1.06
2019-02-02T09:07:05.178Z,0.94
2019-02-02T09:08:22.109Z,1
2019-02-02T09:09:05.205Z,0.94
2019-02-02T09:11:05.198Z,0.94
2019-02-02T09:13:05.152Z,0.94
2019-02-02T09:15:05.179Z,0.94
2019-02-02T09:17:05.194Z,1
2019-02-02T09:19:05.173Z,0.94
2019-02-02T09:21:05.170Z,1.06
2019-02-02T09:23:06.659Z,1
2019-02-02T09:23:22.090Z,1
2019-02-02T09:25:05.126Z,0.88
2019-02-02T09:27:05.130Z,0.94
2019-02-02T09:29:06.930Z,0.88
2019-02-02T09:31:15.402Z,0.94
2019-02-02T09:33:05.188Z,0.88
2019-02-02T09:35:05.184Z,0.88
2019-02-02T09:37:05.158Z,0.94
2019-02-02T09:38:22.227Z,0.81
2019-02-02T09:39:05.190Z,0.88
2019-02-02T09:41:05.202Z,0.81
2019-02-02T09:43:05.189Z,0.88
2019-02-02T09:45:05.159Z,0.94
2019-02-02T09:47:05.191Z,0.94
2019-02-02T09:49:05.186Z,0.88
2019-02-02T09:51:05.180Z,0.88
2019-02-02T09:53:05.179Z,0.81
2019-02-02T09:53:22.103Z,0.81
2019-02-02T09:55:05.245Z,0.75
2019-02-02T09:57:05.190Z,0.81
2019-02-02T09:59:05.176Z,0.75
2019-02-02T10:01:05.135Z,0.75
2019-02-02T10:03:05.254Z,0.63
2019-02-02T10:05:05.167Z,0.69
2019-02-02T10:07:05.180Z,0.75
2019-02-02T10:08:22.129Z,0.75
2019-02-02T10:09:05.182Z,0.75
2019-02-02T10:11:05.199Z,0.69
2019-02-02T10:13:05.078Z,0.75
2019-02-02T10:15:05.154Z,0.81
2019-02-02T10:17:05.216Z,0.75
2019-02-02T10:19:05.175Z,0.63
2019-02-02T10:21:06.142Z,0.69
2019-02-02T10:23:05.166Z,0.69
2019-02-02T10:23:22.099Z,0.63
2019-02-02T10:25:05.215Z,0.69
2019-02-02T10:27:05.157Z,0.56
2019-02-02T10:29:05.272Z,0.63
2019-02-02T10:31:05.184Z,0.63
2019-02-02T10:33:06.933Z,0.63
2019-02-02T10:35:05.223Z,0.69
2019-02-02T10:37:05.189Z,0.63
2019-02-02T10:38:22.138Z,0.63
2019-02-02T10:39:05.186Z,0.63
2019-02-02T10:41:05.141Z,0.63
2019-02-02T10:43:05.209Z,0.63
2019-02-02T10:45:05.134Z,0.56
2019-02-02T10:47:05.190Z,0.63
2019-02-02T10:49:05.192Z,0.69
2019-02-02T10:51:05.132Z,0.63
2019-02-02T10:53:05.124Z,0.63
2019-02-02T10:53:22.021Z,0.63
2019-02-02T10:55:05.177Z,0.56
2019-02-02T10:57:05.160Z,0.63
2019-02-02T10:59:05.267Z,0.5
2019-02-02T11:01:05.135Z,0.63
2019-02-02T11:03:05.177Z,0.69
2019-02-02T11:05:05.129Z,0.69
2019-02-02T11:07:05.203Z,0.81
2019-02-02T11:08:23.115Z,0.69
2019-02-02T11:09:06.096Z,0.69
2019-02-02T11:11:05.162Z,0.75
2019-02-02T11:13:05.225Z,0.69
2019-02-02T11:15:05.340Z,0.63
2019-02-02T11:17:05.189Z,0.69
2019-02-02T11:19:05.215Z,0.63
2019-02-02T11:21:05.169Z,0.69
2019-02-02T11:23:05.237Z,0.69
2019-02-02T11:23:22.204Z,0.75
2019-02-02T11:25:05.308Z,0.69
2019-02-02T11:27:05.232Z,0.69
2019-02-02T11:29:05.351Z,0.69
2019-02-02T11:31:05.139Z,0.69
2019-02-02T11:33:05.176Z,0.75
2019-02-02T11:35:05.093Z,0.81
2019-02-02T11:37:05.193Z,0.81
2019-02-02T11:38:22.149Z,0.88
2019-02-02T11:39:05.160Z,0.81
2019-02-02T11:41:05.171Z,0.75
2019-02-02T11:43:05.192Z,0.81
2019-02-02T11:45:05.189Z,0.81
2019-02-02T11:47:05.177Z,0.81
2019-02-02T11:49:05.135Z,0.81
2019-02-02T11:51:05.191Z,0.81
2019-02-02T11:53:05.166Z,0.81
2019-02-02T11:53:21.973Z,0.75
2019-02-02T11:55:05.158Z,0.75
2019-02-02T11:57:05.115Z,0.75
2019-02-02T11:59:05.167Z,0.75
2019-02-02T12:01:05.121Z,0.69
2019-02-02T12:03:06.049Z,0.81
2019-02-02T12:05:05.157Z,0.81
2019-02-02T12:07:05.182Z,0.81
2019-02-02T12:08:22.138Z,0.88
2019-02-02T12:09:05.165Z,0.81
2019-02-02T12:11:05.138Z,0.75
2019-02-02T12:13:05.161Z,0.75
2019-02-02T12:15:05.143Z,0.69
2019-02-02T12:17:06.124Z,0.75
2019-02-02T12:19:05.174Z,0.81
2019-02-02T12:21:05.187Z,0.69
2019-02-02T12:23:06.312Z,0.69
2019-02-02T12:23:22.067Z,0.69
2019-02-02T12:25:05.071Z,0.69
2019-02-02T12:27:05.165Z,0.69
2019-02-02T12:29:06.020Z,0.81
2019-02-02T12:31:05.190Z,0.88
2019-02-02T12:33:05.055Z,0.88
2019-02-02T12:35:05.071Z,0.81
2019-02-02T12:37:05.138Z,0.81
2019-02-02T12:38:23.024Z,0.88
2019-02-02T12:39:05.212Z,0.81
2019-02-02T12:41:05.139Z,0.75
2019-02-02T12:43:05.479Z,0.75
2019-02-02T12:45:05.339Z,0.81
2019-02-02T12:47:05.128Z,0.81
2019-02-02T12:49:05.245Z,0.88
2019-02-02T12:51:07.531Z,0.81
2019-02-02T12:53:05.249Z,0.75
2019-02-02T12:53:22.025Z,0.75
2019-02-02T12:55:06.091Z,0.88
2019-02-02T12:57:05.179Z,0.88
2019-02-02T12:59:06.123Z,0.81
2019-02-02T13:01:05.208Z,0.81
2019-02-02T13:03:05.189Z,0.81
2019-02-02T13:05:05.189Z,0.88
2019-02-02T13:07:05.202Z,0.88
2019-02-02T13:08:22.146Z,0.88
2019-02-02T13:09:05.233Z,0.88
2019-02-02T13:11:06.026Z,0.81
2019-02-02T13:13:05.207Z,0.88
2019-02-02T13:15:05.191Z,0.81
2019-02-02T13:17:05.188Z,0.69
2019-02-02T13:19:05.110Z,0.69
2019-02-02T13:21:05.151Z,0.75
2019-02-02T13:23:05.247Z,0.69
2019-02-02T13:23:22.035Z,0.69
2019-02-02T13:25:05.286Z,0.63
2019-02-02T13:27:05.198Z,0.63
2019-02-02T13:29:05.159Z,0.63
2019-02-02T13:31:06.025Z,0.5
2019-02-02T13:33:05.301Z,0.5
2019-02-02T13:35:05.179Z,0.5
2019-02-02T13:37:05.187Z,0.5
2019-02-02T13:38:22.145Z,0.5
2019-02-02T13:39:05.177Z,0.44
2019-02-02T13:41:05.180Z,0.5
2019-02-02T13:43:05.280Z,0.44
2019-02-02T13:45:07.052Z,0.44
2019-02-02T13:47:05.264Z,0.44
2019-02-02T13:49:05.184Z,0.44
2019-02-02T13:51:06.014Z,0.44
2019-02-02T13:53:05.184Z,0.31
2019-02-02T13:53:22.086Z,0.31
2019-02-02T13:55:05.170Z,0.31
2019-02-02T13:57:06.957Z,0.38
2019-02-02T13:59:05.202Z,0.38
2019-02-02T14:01:05.152Z,0.25
2019-02-02T14:03:05.186Z,0.25
2019-02-02T14:05:05.215Z,0.25
2019-02-02T14:07:05.168Z,0.25
2019-02-02T14:08:22.070Z,0.19
2019-02-02T14:09:06.063Z,0.19
2019-02-02T14:11:05.191Z,0.19
2019-02-02T14:13:06.125Z,0.25
2019-02-02T14:15:05.171Z,0.25
2019-02-02T14:17:05.126Z,0.25
2019-02-02T14:19:05.198Z,0.25
2019-02-02T14:21:05.384Z,0.19
2019-02-02T14:23:05.210Z,0.25
2019-02-02T14:23:22.081Z,0.25
2019-02-02T14:25:05.143Z,0.25
2019-02-02T14:27:06.100Z,0.19
2019-02-02T14:29:05.314Z,0.25
2019-02-02T14:31:06.057Z,0.19
2019-02-02T14:33:13.588Z,0.25
2019-02-02T14:35:05.198Z,0.19
2019-02-02T14:37:05.245Z,0.25
2019-02-02T14:38:22.117Z,0.31
2019-02-02T14:39:05.136Z,0.31
2019-02-02T14:41:05.126Z,0.19
2019-02-02T14:43:05.087Z,0.19
2019-02-02T14:45:05.147Z,0.13
2019-02-02T14:47:05.154Z,0.13
2019-02-02T14:49:05.205Z,0.13
2019-02-02T14:51:05.122Z,0.13
2019-02-02T14:53:05.171Z,0
2019-02-02T14:53:22.147Z,0
2019-02-02T14:55:05.081Z,0
2019-02-02T14:57:05.144Z,0.06
2019-02-02T14:59:05.191Z,0
2019-02-02T15:01:05.176Z,0.13
2019-02-02T15:03:05.178Z,0.06
2019-02-02T15:05:05.129Z,0.06
2019-02-02T15:07:05.058Z,0.13
2019-02-02T15:08:22.087Z,0.13
2019-02-02T15:09:05.157Z,0.13
2019-02-02T15:11:05.207Z,0.13
2019-02-02T15:13:05.157Z,0.19
2019-02-02T15:15:05.871Z,0.06
2019-02-02T15:17:05.080Z,0
2019-02-02T15:19:05.138Z,-0.06
2019-02-02T15:21:05.222Z,0
2019-02-02T15:23:05.194Z,0
2019-02-02T15:23:22.062Z,-0.06
2019-02-02T15:25:05.271Z,-0.13
2019-02-02T15:27:06.053Z,0
2019-02-02T15:29:05.130Z,0.06
2019-02-02T15:31:05.185Z,0
2019-02-02T15:33:05.187Z,-0.06
2019-02-02T15:35:05.188Z,-0.06
2019-02-02T15:37:05.169Z,-0.06
2019-02-02T15:38:22.150Z,-0.13
2019-02-02T15:39:05.207Z,-0.13
2019-02-02T15:41:05.126Z,-0.19
2019-02-02T15:43:05.194Z,-0.06
2019-02-02T15:45:05.191Z,-0.06
2019-02-02T15:47:05.246Z,-0.06
2019-02-02T15:49:05.170Z,-0.06
2019-02-02T15:51:05.193Z,-0.06
2019-02-02T15:53:05.186Z,-0.06
2019-02-02T15:53:22.109Z,-0.06
2019-02-02T15:55:05.190Z,-0.13
2019-02-02T15:57:05.182Z,-0.06
2019-02-02T15:59:05.131Z,-0.13
2019-02-02T16:01:05.147Z,-0.13
2019-02-02T16:03:05.183Z,-0.13
2019-02-02T16:05:05.195Z,-0.13
2019-02-02T16:07:05.194Z,-0.06
2019-02-02T16:08:22.150Z,-0.13
2019-02-02T16:09:05.180Z,-0.13
2019-02-02T16:11:05.186Z,0
2019-02-02T16:13:05.184Z,-0.06
2019-02-02T16:15:05.101Z,-0.06
2019-02-02T16:17:05.162Z,-0.13
2019-02-02T16:19:05.178Z,-0.06
2019-02-02T16:21:05.134Z,-0.06
2019-02-02T16:23:05.151Z,-0.06
2019-02-02T16:23:22.183Z,-0.06
2019-02-02T16:25:06.074Z,-0.06
2019-02-02T16:27:05.197Z,0
2019-02-02T16:29:05.284Z,-0.06
2019-02-02T16:31:05.183Z,-0.13
2019-02-02T16:33:05.178Z,-0.06
2019-02-02T16:35:05.200Z,-0.06
2019-02-02T16:37:05.224Z,-0.06
2019-02-02T16:38:22.157Z,-0.06
2019-02-02T16:39:05.176Z,-0.06
2019-02-02T16:41:05.176Z,0
2019-02-02T16:43:06.060Z,0
2019-02-02T16:45:05.143Z,-0.06
2019-02-02T16:47:05.113Z,-0.06
2019-02-02T16:49:05.156Z,-0.06
2019-02-02T16:51:05.207Z,0
2019-02-02T16:53:05.197Z,-0.06
2019-02-02T16:53:22.110Z,-0.06
2019-02-02T16:55:06.058Z,-0.06
2019-02-02T16:57:05.179Z,-0.06
2019-02-02T16:59:05.178Z,0
2019-02-02T17:01:05.084Z,-0.06
2019-02-02T17:03:05.181Z,0
2019-02-02T17:05:05.197Z,-0.06
2019-02-02T17:07:05.173Z,-0.06
2019-02-02T17:08:22.256Z,-0.06
2019-02-02T17:09:05.098Z,-0.06
2019-02-02T17:11:05.243Z,-0.06
2019-02-02T17:13:05.163Z,-0.06
2019-02-02T17:15:05.169Z,-0.06
2019-02-02T17:17:05.202Z,-0.06
2019-02-02T17:19:05.153Z,-0.13
2019-02-02T17:21:05.204Z,-0.06
2019-02-02T17:23:05.208Z,-0.06
2019-02-02T17:23:22.062Z,-0.06
2019-02-02T17:25:05.156Z,-0.06
2019-02-02T17:27:05.096Z,-0.13
2019-02-02T17:29:05.197Z,-0.13
2019-02-02T17:31:05.174Z,-0.06
2019-02-02T17:33:05.184Z,-0.06
2019-02-02T17:35:05.174Z,-0.13
2019-02-02T17:37:05.157Z,-0.13
2019-02-02T17:38:22.152Z,-0.19
2019-02-02T17:39:05.090Z,-0.13
2019-02-02T17:41:05.194Z,-0.13
2019-02-02T17:43:05.170Z,-0.13
2019-02-02T17:45:05.178Z,-0.13
2019-02-02T17:47:06.062Z,-0.13
2019-02-02T17:49:05.156Z,-0.13
2019-02-02T17:51:05.172Z,-0.13
2019-02-02T17:53:05.212Z,-0.13
2019-02-02T17:53:22.846Z,-0.13
2019-02-02T17:55:05.276Z,-0.13
2019-02-02T17:57:06.933Z,-0.13
2019-02-02T17:59:05.138Z,-0.13
2019-02-02T18:01:05.717Z,-0.06
2019-02-02T18:03:05.189Z,-0.06
2019-02-02T18:05:05.193Z,-0.06
2019-02-02T18:07:06.057Z,-0.06
2019-02-02T18:08:22.222Z,-0.13
2019-02-02T18:09:05.197Z,-0.13
2019-02-02T18:11:05.293Z,-0.13
2019-02-02T18:13:05.185Z,-0.06
2019-02-02T18:15:05.185Z,-0.06
2019-02-02T18:17:05.230Z,-0.06
2019-02-02T18:19:05.176Z,-0.06
2019-02-02T18:21:05.131Z,-0.13
2019-02-02T18:23:05.251Z,-0.06
2019-02-02T18:23:22.104Z,-0.06
2019-02-02T18:25:05.125Z,-0.06
2019-02-02T18:27:06.087Z,-0.06
2019-02-02T18:29:05.225Z,-0.06
2019-02-02T18:31:05.314Z,-0.13
2019-02-02T18:33:05.098Z,-0.06
2019-02-02T18:35:06.054Z,0
2019-02-02T18:37:05.184Z,-0.06
2019-02-02T18:38:22.153Z,-0.06
2019-02-02T18:39:05.095Z,-0.06
2019-02-02T18:41:05.197Z,-0.06
2019-02-02T18:43:05.173Z,-0.06
2019-02-02T18:45:05.188Z,-0.13
2019-02-02T18:47:05.124Z,-0.13
2019-02-02T18:49:05.164Z,0
2019-02-02T18:51:05.210Z,0
2019-02-02T18:53:05.181Z,-0.06
2019-02-02T18:53:22.078Z,-0.06
2019-02-02T18:55:05.192Z,-0.06
2019-02-02T18:57:05.182Z,0
2019-02-02T18:59:05.287Z,-0.06
2019-02-02T19:01:05.117Z,-0.06
2019-02-02T19:03:05.198Z,-0.06
2019-02-02T19:05:05.158Z,-0.06
2019-02-02T19:07:05.194Z,-0.06
2019-02-02T19:08:23.055Z,-0.06
2019-02-02T19:09:05.116Z,-0.06
2019-02-02T19:11:05.193Z,-0.06
2019-02-02T19:13:05.156Z,-0.06
2019-02-02T19:15:06.069Z,0
2019-02-02T19:17:05.186Z,-0.06
2019-02-02T19:19:05.169Z,-0.06
2019-02-02T19:21:05.201Z,-0.06
2019-02-02T19:23:05.175Z,-0.06
2019-02-02T19:23:24.964Z,-0.06
2019-02-02T19:25:05.166Z,0
2019-02-02T19:27:05.163Z,-0.06
2019-02-02T19:29:05.176Z,-0.06
2019-02-02T19:31:05.200Z,0
2019-02-02T19:33:05.265Z,-0.06
2019-02-02T19:35:15.471Z,0
2019-02-02T19:37:05.177Z,0
2019-02-02T19:38:22.141Z,0
2019-02-02T19:39:05.180Z,0
2019-02-02T19:41:05.172Z,0
2019-02-02T19:43:05.224Z,0
2019-02-02T19:45:05.149Z,0
2019-02-02T19:47:15.665Z,0
2019-02-02T19:49:05.222Z,0
2019-02-02T19:51:05.172Z,0.06
2019-02-02T19:53:05.307Z,0.06
2019-02-02T19:53:22.162Z,0.06
2019-02-02T19:55:14.284Z,0.06
2019-02-02T19:57:06.135Z,0.13
2019-02-02T19:59:05.191Z,0.06
2019-02-02T20:01:05.188Z,0.06
2019-02-02T20:03:05.123Z,0.06
2019-02-02T20:05:05.187Z,0.06
2019-02-02T20:07:05.279Z,0.06
2019-02-02T20:08:22.150Z,0.06
2019-02-02T20:09:05.211Z,0.06
2019-02-02T20:11:05.139Z,0.06
2019-02-02T20:13:05.226Z,0.06
2019-02-02T20:15:05.196Z,0.13
2019-02-02T20:17:05.192Z,0.13
2019-02-02T20:19:05.195Z,0.06
2019-02-02T20:21:05.191Z,0.13
2019-02-02T20:23:05.190Z,0.13
2019-02-02T20:23:22.092Z,0.13
2019-02-02T20:25:05.158Z,0.13
2019-02-02T20:27:05.165Z,0.13
2019-02-02T20:29:06.063Z,0.13
2019-02-02T20:31:06.187Z,0.13
2019-02-02T20:33:05.160Z,0.19
2019-02-02T20:35:05.174Z,0.13
2019-02-02T20:37:05.274Z,0.13
2019-02-02T20:38:22.192Z,0.19
2019-02-02T20:39:05.127Z,0.19
2019-02-02T20:41:05.170Z,0.19
2019-02-02T20:43:05.124Z,0.19
2019-02-02T20:45:05.171Z,0.19
2019-02-02T20:47:05.213Z,0.19
2019-02-02T20:49:07.853Z,0.19
2019-02-02T20:51:05.172Z,0.19
2019-02-02T20:53:05.186Z,0.19
2019-02-02T20:53:22.114Z,0.19
2019-02-02T20:55:06.063Z,0.19
2019-02-02T20:57:05.196Z,0.19
2019-02-02T20:59:05.164Z,0.19
2019-02-02T21:01:05.179Z,0.19
2019-02-02T21:03:05.208Z,0.19
2019-02-02T21:05:05.195Z,0.19
2019-02-02T21:07:06.083Z,0.25
2019-02-02T21:08:23.026Z,0.25
2019-02-02T21:09:05.135Z,0.25
2019-02-02T21:11:05.156Z,0.25
2019-02-02T21:13:05.193Z,0.25
2019-02-02T21:15:05.139Z,0.19
2019-02-02T21:17:05.137Z,0.19
2019-02-02T21:19:05.184Z,0.25
2019-02-02T21:21:05.183Z,0.25
2019-02-02T21:23:05.193Z,0.25
2019-02-02T21:23:22.105Z,0.25
2019-02-02T21:25:05.193Z,0.25
2019-02-02T21:27:05.296Z,0.31
2019-02-02T21:29:05.170Z,0.25
2019-02-02T21:31:05.196Z,0.25
2019-02-02T21:33:05.137Z,0.19
2019-02-02T21:35:05.227Z,0.19
2019-02-02T21:37:05.181Z,0.19
2019-02-02T21:38:22.146Z,0.19
2019-02-02T21:39:05.160Z,0.19
2019-02-02T21:41:05.190Z,0.25
2019-02-02T21:43:05.174Z,0.25
2019-02-02T21:45:05.171Z,0.19
2019-02-02T21:47:05.101Z,0.19
2019-02-02T21:49:05.195Z,0.19
2019-02-02T21:51:05.200Z,0.19
2019-02-02T21:53:05.124Z,0.25
2019-02-02T21:53:22.065Z,0.25
2019-02-02T21:55:05.195Z,0.25
2019-02-02T21:57:05.259Z,0.25
2019-02-02T21:59:05.172Z,0.25
2019-02-02T22:01:05.176Z,0.25
2019-02-02T22:03:06.065Z,0.25
2019-02-02T22:05:05.182Z,0.25
2019-02-02T22:07:05.190Z,0.25
2019-02-02T22:08:22.152Z,0.31
2019-02-02T22:09:05.247Z,0.25
2019-02-02T22:11:05.173Z,0.25
2019-02-02T22:13:06.085Z,0.31
2019-02-02T22:15:06.064Z,0.31
2019-02-02T22:17:06.052Z,0.31
2019-02-02T22:19:05.155Z,0.31
2019-02-02T22:21:05.199Z,0.31
2019-02-02T22:23:05.135Z,0.38
2019-02-02T22:23:22.089Z,0.38
2019-02-02T22:25:06.960Z,0.31
2019-02-02T22:27:06.091Z,0.38
2019-02-02T22:29:06.116Z,0.31
2019-02-02T22:31:05.276Z,0.31
2019-02-02T22:33:05.140Z,0.31
2019-02-02T22:35:06.072Z,0.38
2019-02-02T22:37:06.014Z,0.38
2019-02-02T22:38:22.177Z,0.31
2019-02-02T22:39:05.174Z,0.38
2019-02-02T22:41:06.982Z,0.31
2019-02-02T22:43:06.161Z,0.31
2019-02-02T22:45:05.189Z,0.31
2019-02-02T22:47:07.573Z,0.31
2019-02-02T22:49:05.196Z,0.31
2019-02-02T22:51:05.187Z,0.31
2019-02-02T22:53:05.177Z,0.31
2019-02-02T22:53:22.105Z,0.25
2019-02-02T22:55:05.171Z,0.31
2019-02-02T22:57:05.189Z,0.31
2019-02-02T22:59:05.211Z,0.31
2019-02-02T23:01:05.220Z,0.25
2019-02-02T23:03:05.060Z,0.25
2019-02-02T23:05:05.208Z,0.31
2019-02-02T23:07:05.191Z,0.31
2019-02-02T23:08:22.133Z,0.31
2019-02-02T23:09:06.038Z,0.31
2019-02-02T23:11:05.167Z,0.25
2019-02-02T23:13:05.172Z,0.31
2019-02-02T23:15:07.387Z,0.31
2019-02-02T23:17:06.081Z,0.31
2019-02-02T23:19:05.179Z,0.25
2019-02-02T23:21:05.198Z,0.25
2019-02-02T23:23:05.186Z,0.25
2019-02-02T23:23:22.138Z,0.25
2019-02-02T23:25:05.176Z,0.19
2019-02-02T23:27:06.005Z,0.25
2019-02-02T23:29:06.125Z,0.31
2019-02-02T23:31:05.119Z,0.31
2019-02-02T23:33:06.080Z,0.25
2019-02-02T23:35:05.258Z,0.19